Terminal Aerodrome Forecast
Issued by NWS

Home | Current Version | Previous Version | Graphics & Text | Print | Product List | Glossary On
Versions: 1 2 3 4 5 6 7 8 9 10 11 12
624
FTUS43 KTOP 182320
TAFFOE
TAF
KFOE 182320Z 1900/1924 16006KT P6SM SCT030
     FM191500 17010KT P6SM SCT150
     FM191800 16015G22KT P6SM FEW250=

USA.gov is the U.S. government's official web portal to all federal, state and local government web resources and services.